createdAt,value
2023-10-17T00:01:36.062Z,7.50
2023-10-17T00:04:28.049Z,13.90
2023-10-17T00:07:04.289Z,9.80
2023-10-17T00:09:38.091Z,9.40
2023-10-17T00:12:15.542Z,10.50
2023-10-17T00:14:55.258Z,16.20
2023-10-17T00:17:22.924Z,10.30
2023-10-17T00:19:53.140Z,10.80
2023-10-17T00:22:20.523Z,10.70
2023-10-17T00:24:53.086Z,11.20
2023-10-17T00:27:20.524Z,8.80
2023-10-17T00:29:47.717Z,13.80
2023-10-17T00:32:16.150Z,11.00
2023-10-17T00:34:45.188Z,8.40
2023-10-17T00:37:12.880Z,8.30
2023-10-17T00:39:40.439Z,13.20
2023-10-17T00:42:09.566Z,8.70
2023-10-17T00:44:38.415Z,9.70
2023-10-17T00:47:08.151Z,20.00
2023-10-17T00:49:42.733Z,20.50
2023-10-17T00:52:20.461Z,19.60
2023-10-17T00:54:48.841Z,24.90
2023-10-17T00:57:16.848Z,26.20
2023-10-17T00:59:54.771Z,25.40
2023-10-17T01:02:25.083Z,28.80
2023-10-17T01:04:53.840Z,23.50
2023-10-17T01:07:36.041Z,21.50
2023-10-17T01:10:15.676Z,19.40
2023-10-17T01:12:54.396Z,23.00
2023-10-17T01:15:29.935Z,26.00
2023-10-17T01:18:07.289Z,24.10
2023-10-17T01:20:36.732Z,24.40
2023-10-17T01:23:05.639Z,22.20
2023-10-17T01:25:36.916Z,19.50
2023-10-17T01:28:07.508Z,23.40
2023-10-17T01:30:34.832Z,25.00
2023-10-17T01:33:02.122Z,20.40
2023-10-17T01:35:29.582Z,18.80
2023-10-17T01:37:57.245Z,20.40
2023-10-17T01:40:25.096Z,16.20
2023-10-17T01:42:53.498Z,17.20
2023-10-17T01:45:28.258Z,18.20
2023-10-17T01:47:55.746Z,21.60
2023-10-17T01:50:25.807Z,20.30
2023-10-17T01:52:59.751Z,17.20
2023-10-17T01:55:29.755Z,16.30
2023-10-17T01:58:01.383Z,16.40
2023-10-17T02:00:37.661Z,10.70
2023-10-17T02:03:07.136Z,15.50
2023-10-17T02:05:37.804Z,23.20
2023-10-17T02:08:06.744Z,25.90
2023-10-17T02:10:35.083Z,17.70
2023-10-17T02:13:05.857Z,16.30
2023-10-17T02:15:33.216Z,16.80
2023-10-17T02:18:05.442Z,17.90
2023-10-17T02:20:35.980Z,19.30
2023-10-17T02:23:20.539Z,18.30
2023-10-17T02:25:47.896Z,18.60
2023-10-17T02:28:15.037Z,22.80
2023-10-17T02:30:42.196Z,15.20
2023-10-17T02:33:15.335Z,17.20
2023-10-17T02:35:55.026Z,16.00
2023-10-17T02:38:22.493Z,17.80
2023-10-17T02:40:54.656Z,19.90
2023-10-17T02:43:21.812Z,20.40
2023-10-17T02:45:50.940Z,22.50
2023-10-17T02:48:28.052Z,18.40
2023-10-17T02:51:02.490Z,17.30
2023-10-17T02:53:31.601Z,26.00
2023-10-17T02:56:00.571Z,22.10
2023-10-17T02:58:27.663Z,18.90
2023-10-17T03:00:55.126Z,20.90
2023-10-17T03:03:23.766Z,29.70
2023-10-17T03:05:54.980Z,31.50
2023-10-17T03:08:22.599Z,23.40
2023-10-17T03:10:57.154Z,30.80
2023-10-17T03:13:35.203Z,18.30
2023-10-17T03:16:15.656Z,17.60
2023-10-17T03:18:43.248Z,17.80
2023-10-17T03:21:10.573Z,12.00
2023-10-17T03:23:39.337Z,21.20
2023-10-17T03:26:06.490Z,22.00
2023-10-17T03:28:34.898Z,25.80
2023-10-17T03:31:11.885Z,32.60
2023-10-17T03:33:43.947Z,27.20
2023-10-17T03:36:31.300Z,43.00
2023-10-17T03:39:18.565Z,32.90
2023-10-17T03:41:46.739Z,31.60
2023-10-17T03:44:19.603Z,32.30
2023-10-17T03:46:49.924Z,25.90
2023-10-17T03:49:19.892Z,28.60
2023-10-17T03:51:56.964Z,25.60
2023-10-17T03:54:24.531Z,27.10
2023-10-17T03:56:57.720Z,30.20
2023-10-17T03:59:40.483Z,29.30
2023-10-17T04:02:20.645Z,33.00
2023-10-17T04:04:57.387Z,35.80
2023-10-17T04:07:28.558Z,27.30
2023-10-17T04:10:01.767Z,31.50
2023-10-17T04:12:49.679Z,21.20
2023-10-17T04:15:20.602Z,28.60
2023-10-17T04:17:48.010Z,25.10
2023-10-17T04:20:18.033Z,27.00
2023-10-17T04:22:45.280Z,19.80
2023-10-17T04:25:35.391Z,25.60
2023-10-17T04:28:03.132Z,24.60
2023-10-17T04:30:47.890Z,27.90
2023-10-17T04:33:15.580Z,28.70
2023-10-17T04:35:48.820Z,30.30
2023-10-17T04:38:28.630Z,39.10
2023-10-17T04:41:04.011Z,32.10
2023-10-17T04:43:49.893Z,31.70
2023-10-17T04:46:18.662Z,31.20
2023-10-17T04:48:48.817Z,32.00
2023-10-17T04:51:18.587Z,29.80
2023-10-17T04:53:52.036Z,32.50
2023-10-17T04:56:24.320Z,39.40
2023-10-17T04:58:57.798Z,29.40
2023-10-17T05:01:38.234Z,37.20
2023-10-17T05:04:17.074Z,31.80
2023-10-17T05:07:07.671Z,30.10
2023-10-17T05:09:37.702Z,37.60
2023-10-17T05:12:24.045Z,38.40
2023-10-17T05:15:09.812Z,37.20
2023-10-17T05:17:55.761Z,31.20
2023-10-17T05:20:52.358Z,47.90
2023-10-17T05:23:38.145Z,39.30
2023-10-17T05:26:27.822Z,40.00
2023-10-17T05:29:13.807Z,42.30
2023-10-17T05:32:13.177Z,49.70
2023-10-17T05:34:59.788Z,47.50
2023-10-17T05:37:47.045Z,41.90
2023-10-17T05:40:32.931Z,46.30
2023-10-17T05:43:18.445Z,47.10
2023-10-17T05:46:33.472Z,52.30
2023-10-17T05:49:19.583Z,47.10
2023-10-17T05:52:05.212Z,36.50
2023-10-17T05:57:39.911Z,35.20
2023-10-17T06:00:26.156Z,38.70
2023-10-17T06:03:11.905Z,37.50
2023-10-17T06:06:05.030Z,30.20
2023-10-17T06:08:50.887Z,30.90
2023-10-17T06:11:36.871Z,26.90
2023-10-17T06:14:42.403Z,24.50
2023-10-17T06:17:23.739Z,26.00
2023-10-17T06:19:51.300Z,20.50
2023-10-17T06:22:21.061Z,19.00
2023-10-17T06:24:48.536Z,30.90
2023-10-17T06:27:36.266Z,30.90
2023-10-17T06:30:23.002Z,29.80
2023-10-17T06:32:50.241Z,28.30
2023-10-17T06:35:24.671Z,23.60
2023-10-17T06:37:53.223Z,23.90
2023-10-17T06:40:31.420Z,25.50
2023-10-17T06:43:01.952Z,30.50
2023-10-17T06:45:33.921Z,35.70
2023-10-17T06:48:09.218Z,43.40
2023-10-17T06:50:55.368Z,43.70
2023-10-17T06:53:29.150Z,39.20
2023-10-17T06:56:05.637Z,35.40
2023-10-17T06:58:34.314Z,36.80
2023-10-17T07:01:03.046Z,36.60
2023-10-17T07:03:36.168Z,35.50
2023-10-17T07:06:14.672Z,40.30
2023-10-17T07:08:42.846Z,28.20
2023-10-17T07:11:28.460Z,34.20
2023-10-17T07:14:23.359Z,29.30
2023-10-17T07:16:50.809Z,30.40
2023-10-17T07:19:27.335Z,29.30
2023-10-17T07:22:02.550Z,32.80
2023-10-17T07:24:36.012Z,27.60
2023-10-17T07:27:20.778Z,22.90
2023-10-17T07:30:00.027Z,31.50
2023-10-17T07:32:34.843Z,32.20
2023-10-17T07:35:06.414Z,31.60
2023-10-17T07:37:49.642Z,27.80
2023-10-17T07:40:16.877Z,27.30
2023-10-17T07:42:47.217Z,28.60
2023-10-17T07:45:15.981Z,26.30
2023-10-17T07:47:44.710Z,23.00
2023-10-17T07:50:15.646Z,25.20
2023-10-17T07:52:49.118Z,28.40
2023-10-17T07:55:19.954Z,23.60
2023-10-17T07:57:53.044Z,24.20
2023-10-17T08:00:31.253Z,17.10
2023-10-17T08:03:08.935Z,19.60
2023-10-17T08:05:39.162Z,13.90
2023-10-17T08:08:10.111Z,9.00
2023-10-17T08:10:37.300Z,10.60
2023-10-17T08:13:05.182Z,7.50
2023-10-17T08:15:40.087Z,8.60
2023-10-17T08:18:16.406Z,11.30
2023-10-17T08:21:03.471Z,8.90
2023-10-17T08:23:31.645Z,9.30
2023-10-17T08:26:02.585Z,13.30
2023-10-17T08:28:48.100Z,13.50
2023-10-17T08:31:26.000Z,12.20
2023-10-17T08:34:03.360Z,15.50
2023-10-17T08:36:44.570Z,11.40
2023-10-17T08:39:31.720Z,18.60
2023-10-17T08:42:07.705Z,14.60
2023-10-17T08:44:40.710Z,20.00
2023-10-17T08:47:28.324Z,16.60
2023-10-17T08:49:56.041Z,10.20
2023-10-17T08:52:25.979Z,9.60
2023-10-17T08:54:53.318Z,11.30
2023-10-17T08:57:25.014Z,3.20
2023-10-17T08:59:52.402Z,7.90
2023-10-17T09:02:25.916Z,5.10
2023-10-17T09:04:53.625Z,4.60
2023-10-17T09:07:33.967Z,4.50
2023-10-17T09:10:08.900Z,2.60
2023-10-17T09:12:44.537Z,3.30
2023-10-17T09:15:28.904Z,4.10
2023-10-17T09:18:09.782Z,6.80
2023-10-17T09:20:38.933Z,5.50
2023-10-17T09:26:09.208Z,3.60
2023-10-17T09:28:37.369Z,3.50
2023-10-17T09:31:13.971Z,2.30
2023-10-17T09:33:46.311Z,2.30
2023-10-17T09:36:19.148Z,5.70
2023-10-17T09:38:48.315Z,6.20
2023-10-17T09:41:20.201Z,4.60
2023-10-17T09:43:55.507Z,4.00
2023-10-17T09:46:31.073Z,3.40
2023-10-17T09:49:01.915Z,7.20
2023-10-17T09:51:35.305Z,3.80
2023-10-17T09:54:06.127Z,5.20
2023-10-17T09:56:42.589Z,4.30
2023-10-17T09:59:23.146Z,5.90
2023-10-17T10:01:52.070Z,5.30
2023-10-17T10:04:21.183Z,4.60
2023-10-17T10:06:49.558Z,5.00
2023-10-17T10:09:17.529Z,5.20
2023-10-17T10:11:53.515Z,3.40
2023-10-17T10:14:29.609Z,2.50
2023-10-17T10:17:07.313Z,4.50
2023-10-17T10:19:43.663Z,4.00
2023-10-17T10:22:12.596Z,4.60
2023-10-17T10:24:41.384Z,5.20
2023-10-17T10:27:21.013Z,3.90
2023-10-17T10:29:54.130Z,4.40
2023-10-17T10:32:27.385Z,4.10
2023-10-17T10:34:55.050Z,2.70
2023-10-17T10:37:23.446Z,3.10
2023-10-17T10:40:10.462Z,3.30
2023-10-17T10:42:52.106Z,4.00
2023-10-17T10:45:56.863Z,8.40
2023-10-17T10:48:24.389Z,4.50
2023-10-17T10:51:01.610Z,3.40
2023-10-17T10:53:31.178Z,5.90
2023-10-17T10:56:03.659Z,5.60
2023-10-17T10:58:34.874Z,3.40
2023-10-17T11:01:04.585Z,4.60
2023-10-17T11:06:06.119Z,5.50
2023-10-17T11:08:48.458Z,3.90
2023-10-17T11:11:18.233Z,3.40
2023-10-17T11:13:50.196Z,4.50
2023-10-17T11:16:22.665Z,4.70
2023-10-17T11:18:50.415Z,4.00
2023-10-17T11:21:24.024Z,4.80
2023-10-17T11:23:56.724Z,5.90
2023-10-17T11:26:28.774Z,5.10
2023-10-17T11:28:57.945Z,3.90
2023-10-17T11:31:26.645Z,4.30
2023-10-17T11:34:06.138Z,3.80
2023-10-17T11:36:56.413Z,4.40
2023-10-17T11:39:28.006Z,5.80
2023-10-17T11:41:56.049Z,5.80
2023-10-17T11:44:25.725Z,5.40
2023-10-17T11:46:57.354Z,7.10
2023-10-17T11:49:28.714Z,5.50
2023-10-17T11:54:34.281Z,4.70
2023-10-17T11:57:16.277Z,8.40
2023-10-17T11:59:57.499Z,7.00
2023-10-17T12:02:25.604Z,6.30
2023-10-17T12:04:54.611Z,4.20
2023-10-17T12:07:22.950Z,6.10
2023-10-17T12:09:53.881Z,5.00
2023-10-17T12:12:21.294Z,4.10
2023-10-17T12:14:49.063Z,4.50
2023-10-17T12:17:20.957Z,5.10
2023-10-17T12:19:48.715Z,8.60
2023-10-17T12:22:16.134Z,4.40
2023-10-17T12:24:44.307Z,6.40
2023-10-17T12:27:14.060Z,5.90
2023-10-17T12:29:42.286Z,4.20
2023-10-17T12:32:13.205Z,5.40
2023-10-17T12:34:43.871Z,4.50
2023-10-17T12:37:13.176Z,4.50
2023-10-17T12:39:44.317Z,7.10
2023-10-17T12:42:15.633Z,6.80
2023-10-17T12:47:09.981Z,9.70
2023-10-17T12:49:38.728Z,8.30
2023-10-17T12:52:06.641Z,9.30
2023-10-17T12:54:34.230Z,8.60
2023-10-17T12:57:01.456Z,7.10
2023-10-17T12:59:28.560Z,11.10
2023-10-17T13:01:56.287Z,7.80
2023-10-17T13:04:25.444Z,7.10
2023-10-17T13:06:55.032Z,6.80
2023-10-17T13:09:24.304Z,7.50
2023-10-17T13:11:51.553Z,8.90
2023-10-17T13:14:18.911Z,5.30
2023-10-17T13:16:47.244Z,6.90
2023-10-17T13:19:18.133Z,6.10
2023-10-17T13:21:47.018Z,9.90
2023-10-17T13:24:16.093Z,10.90
2023-10-17T13:26:45.441Z,7.70
2023-10-17T13:29:14.083Z,6.60
2023-10-17T13:31:41.372Z,7.70
2023-10-17T13:34:08.851Z,10.60
2023-10-17T13:36:36.126Z,8.80
2023-10-17T13:39:06.079Z,6.90
2023-10-17T13:41:33.300Z,7.20
2023-10-17T13:44:00.548Z,8.30
2023-10-17T13:46:27.804Z,5.20
2023-10-17T13:48:55.299Z,6.70
2023-10-17T13:51:22.972Z,7.50
2023-10-17T13:53:51.706Z,7.40
2023-10-17T13:56:22.952Z,10.00
2023-10-17T13:58:51.019Z,9.40
2023-10-17T14:01:34.191Z,7.10
2023-10-17T14:04:03.555Z,6.70
2023-10-17T14:06:39.884Z,6.00
2023-10-17T14:09:19.025Z,10.80
2023-10-17T14:11:49.610Z,8.40
2023-10-17T14:14:17.144Z,7.50
2023-10-17T14:16:45.281Z,6.30
2023-10-17T14:19:30.241Z,4.70
2023-10-17T14:22:12.293Z,7.80
2023-10-17T14:24:55.687Z,8.70
2023-10-17T14:27:24.602Z,10.70
2023-10-17T14:29:52.949Z,9.30
2023-10-17T14:32:22.193Z,6.50
2023-10-17T14:35:04.603Z,7.00
2023-10-17T14:37:34.812Z,7.90
2023-10-17T14:40:02.400Z,10.60
2023-10-17T14:42:30.283Z,6.60
2023-10-17T14:45:03.366Z,6.70
2023-10-17T14:47:31.565Z,7.70
2023-10-17T14:49:59.493Z,10.80
2023-10-17T14:52:26.544Z,8.40
2023-10-17T14:54:53.860Z,7.40
2023-10-17T14:57:22.781Z,9.00
2023-10-17T14:59:49.964Z,6.60
2023-10-17T15:02:17.118Z,7.50
2023-10-17T15:04:44.337Z,6.90
2023-10-17T15:07:13.568Z,7.00
2023-10-17T15:09:40.966Z,6.20
2023-10-17T15:12:10.368Z,6.60
2023-10-17T15:14:37.690Z,7.70
2023-10-17T15:17:06.581Z,10.90
2023-10-17T15:19:34.685Z,6.20
2023-10-17T15:22:05.299Z,9.00
2023-10-17T15:24:32.686Z,10.70
2023-10-17T15:27:00.283Z,15.10
2023-10-17T15:29:29.094Z,22.10
2023-10-17T15:31:56.991Z,19.20
2023-10-17T15:34:24.428Z,21.90
2023-10-17T15:36:53.452Z,30.00
2023-10-17T15:39:27.246Z,32.60
2023-10-17T15:41:54.972Z,26.80
2023-10-17T15:44:22.891Z,27.00
2023-10-17T15:46:50.409Z,26.50
2023-10-17T15:49:18.163Z,26.60
2023-10-17T15:51:45.513Z,31.30
2023-10-17T15:54:12.990Z,43.60
2023-10-17T15:56:40.103Z,30.40
2023-10-17T15:59:09.592Z,31.30
2023-10-17T16:01:36.957Z,26.50
2023-10-17T16:04:04.213Z,35.50
2023-10-17T16:06:31.942Z,29.10
2023-10-17T16:08:59.147Z,36.40
2023-10-17T16:11:30.212Z,35.30
2023-10-17T16:13:57.442Z,33.80
2023-10-17T16:16:25.850Z,35.30
2023-10-17T16:18:54.017Z,33.70
2023-10-17T16:21:21.396Z,30.40
2023-10-17T16:23:51.555Z,33.40
2023-10-17T16:26:18.950Z,43.10
2023-10-17T16:28:46.616Z,38.60
2023-10-17T16:31:14.869Z,33.80
2023-10-17T16:33:42.198Z,38.10
2023-10-17T16:36:10.336Z,36.80
2023-10-17T16:38:37.690Z,47.50
2023-10-17T16:41:04.982Z,53.60
2023-10-17T16:43:33.558Z,39.80
2023-10-17T16:46:02.032Z,27.20
2023-10-17T16:48:31.133Z,27.20
2023-10-17T16:51:00.831Z,25.00
2023-10-17T16:53:30.058Z,19.40
2023-10-17T16:55:58.563Z,16.50
2023-10-17T16:58:27.927Z,17.90
2023-10-17T17:01:07.354Z,30.00
2023-10-17T17:03:34.737Z,28.40
2023-10-17T17:06:09.512Z,20.10
2023-10-17T17:08:37.123Z,28.90
2023-10-17T17:11:07.953Z,35.80
2023-10-17T17:13:36.147Z,26.90
2023-10-17T17:16:04.432Z,26.80
2023-10-17T17:21:07.145Z,42.30
2023-10-17T17:23:34.480Z,37.00
2023-10-17T17:26:01.834Z,44.80
2023-10-17T17:28:29.089Z,38.40
2023-10-17T17:30:56.266Z,23.70
2023-10-17T17:33:23.558Z,31.50
2023-10-17T17:35:50.769Z,35.20
2023-10-17T17:38:18.635Z,21.20
2023-10-17T17:40:46.360Z,17.80
2023-10-17T17:43:14.272Z,22.60
2023-10-17T17:45:45.249Z,45.70
2023-10-17T17:48:12.638Z,39.70
2023-10-17T17:50:40.243Z,69.70
2023-10-17T17:53:07.402Z,45.40
2023-10-17T17:55:40.657Z,50.50
2023-10-17T17:58:08.561Z,75.40
2023-10-17T18:00:36.029Z,60.60
2023-10-17T18:03:03.625Z,52.40
2023-10-17T18:05:30.838Z,55.30
2023-10-17T18:07:58.034Z,55.00
2023-10-17T18:10:25.241Z,63.80
2023-10-17T18:12:52.684Z,111.50
2023-10-17T18:15:19.961Z,150.60
2023-10-17T18:17:48.599Z,122.00
2023-10-17T18:20:15.809Z,121.20
2023-10-17T18:22:46.851Z,130.60
2023-10-17T18:25:13.896Z,150.80
2023-10-17T18:27:40.991Z,210.20
2023-10-17T18:30:08.716Z,167.20
2023-10-17T18:32:36.157Z,153.80
2023-10-17T18:35:06.723Z,159.40
2023-10-17T18:37:39.249Z,138.70
2023-10-17T18:40:12.647Z,135.50
2023-10-17T18:42:40.821Z,134.10
2023-10-17T18:45:16.064Z,135.90
2023-10-17T18:47:43.811Z,134.10
2023-10-17T18:50:12.373Z,130.30
2023-10-17T18:52:39.733Z,144.90
2023-10-17T18:55:10.986Z,134.40
2023-10-17T18:57:41.839Z,126.20
2023-10-17T19:00:16.092Z,250.90
2023-10-17T19:02:44.849Z,158.50
2023-10-17T19:05:12.624Z,112.80
2023-10-17T19:07:42.766Z,105.10
2023-10-17T19:10:15.849Z,93.20
2023-10-17T19:12:51.953Z,91.80
2023-10-17T19:15:20.753Z,101.80
2023-10-17T19:17:47.942Z,106.60
2023-10-17T19:20:15.836Z,79.10
2023-10-17T19:22:44.543Z,57.80
2023-10-17T19:25:14.718Z,52.60
2023-10-17T19:27:42.005Z,51.00
2023-10-17T19:30:11.499Z,43.20
2023-10-17T19:32:39.721Z,38.30
2023-10-17T19:35:07.502Z,36.60
2023-10-17T19:37:34.606Z,31.80
2023-10-17T19:40:01.806Z,19.20
2023-10-17T19:42:29.109Z,18.40
2023-10-17T19:44:56.241Z,31.40
2023-10-17T19:47:23.568Z,41.60
2023-10-17T19:49:51.366Z,43.90
2023-10-17T19:52:18.719Z,50.00
2023-10-17T19:54:45.964Z,63.90
2023-10-17T19:57:13.255Z,81.10
2023-10-17T19:59:40.489Z,126.40
2023-10-17T20:02:07.618Z,147.20
2023-10-17T20:04:35.866Z,136.50
2023-10-17T20:07:03.164Z,148.30
2023-10-17T20:09:31.396Z,155.30
2023-10-17T20:12:00.494Z,163.40
2023-10-17T20:14:27.798Z,159.10
2023-10-17T20:16:55.043Z,155.80
2023-10-17T20:19:22.392Z,148.00
2023-10-17T20:21:49.822Z,137.40
2023-10-17T20:24:17.073Z,120.60
2023-10-17T20:26:44.227Z,112.10
2023-10-17T20:29:13.837Z,105.10
2023-10-17T20:31:41.153Z,93.90
2023-10-17T20:34:09.098Z,86.70
2023-10-17T20:36:37.494Z,92.40
2023-10-17T20:39:05.427Z,78.00
2023-10-17T20:41:34.931Z,66.00
2023-10-17T20:44:02.297Z,63.30
2023-10-17T20:46:33.429Z,55.10
2023-10-17T20:49:03.780Z,50.50
2023-10-17T20:51:31.268Z,45.00
2023-10-17T20:53:58.791Z,49.90
2023-10-17T20:56:38.736Z,50.40
2023-10-17T20:59:10.810Z,58.50
2023-10-17T21:01:38.088Z,58.50
2023-10-17T21:04:05.819Z,63.40
2023-10-17T21:06:33.876Z,62.60
2023-10-17T21:09:01.059Z,58.80
2023-10-17T21:11:28.373Z,64.70
2023-10-17T21:13:56.088Z,59.10
2023-10-17T21:16:23.415Z,62.50
2023-10-17T21:18:50.746Z,47.00
2023-10-17T21:21:17.982Z,45.50
2023-10-17T21:23:45.519Z,53.70
2023-10-17T21:26:14.097Z,53.50
2023-10-17T21:28:41.965Z,50.60
2023-10-17T21:31:09.606Z,50.00
2023-10-17T21:33:37.266Z,49.90
2023-10-17T21:36:06.056Z,37.30
2023-10-17T21:38:33.268Z,45.60
2023-10-17T21:41:03.268Z,43.70
2023-10-17T21:43:40.084Z,40.80
2023-10-17T21:46:08.899Z,41.60
2023-10-17T21:48:36.537Z,43.40
2023-10-17T21:51:10.270Z,39.50
2023-10-17T21:53:40.784Z,44.60
2023-10-17T21:56:08.883Z,48.70
2023-10-17T21:58:37.956Z,45.40
2023-10-17T22:01:06.540Z,41.70
2023-10-17T22:03:34.570Z,40.20
2023-10-17T22:06:07.996Z,45.40
2023-10-17T22:08:38.831Z,41.60
2023-10-17T22:11:20.289Z,42.40
2023-10-17T22:13:52.249Z,55.20
2023-10-17T22:16:23.176Z,66.50
2023-10-17T22:18:50.881Z,68.20
2023-10-17T22:21:21.340Z,61.20
2023-10-17T22:23:49.538Z,63.40
2023-10-17T22:26:17.076Z,61.80
2023-10-17T22:28:44.317Z,59.20
2023-10-17T22:31:11.745Z,61.90
2023-10-17T22:33:39.962Z,64.20
2023-10-17T22:36:09.381Z,66.40
2023-10-17T22:38:37.762Z,63.40
2023-10-17T22:41:05.831Z,65.30
2023-10-17T22:43:33.376Z,85.40
2023-10-17T22:46:06.126Z,79.70
2023-10-17T22:48:34.257Z,82.50
2023-10-17T22:51:02.472Z,78.30
2023-10-17T22:53:29.889Z,79.00
2023-10-17T22:55:57.140Z,81.60
2023-10-17T22:58:25.426Z,83.00
2023-10-17T23:00:53.104Z,87.10
2023-10-17T23:03:20.651Z,76.30
2023-10-17T23:05:47.907Z,87.30
2023-10-17T23:08:15.067Z,86.10
2023-10-17T23:10:42.222Z,75.40
2023-10-17T23:13:18.713Z,85.30
2023-10-17T23:15:58.001Z,83.00
2023-10-17T23:18:40.034Z,90.00
2023-10-17T23:21:20.121Z,99.20
2023-10-17T23:24:01.317Z,87.10
2023-10-17T23:26:42.329Z,84.30
2023-10-17T23:29:24.675Z,86.50
2023-10-17T23:32:02.435Z,83.70
2023-10-17T23:34:43.082Z,91.40
2023-10-17T23:37:22.783Z,81.60
2023-10-17T23:40:02.139Z,79.60
2023-10-17T23:42:42.478Z,73.10
2023-10-17T23:45:24.908Z,74.40
2023-10-17T23:48:07.857Z,86.00
2023-10-17T23:50:39.482Z,79.00
2023-10-17T23:53:10.729Z,91.50
2023-10-17T23:55:37.884Z,90.20
2023-10-17T23:58:05.271Z,86.10
